sensor_id;sensor_type;location;lat;lon;timestamp;temperature;humidity
76168;DHT22;64927;48.214;16.378;2023-11-19T00:00:51;7.90;56.20
76168;DHT22;64927;48.214;16.378;2023-11-19T00:03:17;7.90;56.70
76168;DHT22;64927;48.214;16.378;2023-11-19T00:05:45;7.80;56.80
76168;DHT22;64927;48.214;16.378;2023-11-19T00:08:15;7.90;56.60
76168;DHT22;64927;48.214;16.378;2023-11-19T00:10:44;7.80;56.70
76168;DHT22;64927;48.214;16.378;2023-11-19T00:13:09;7.80;56.80
76168;DHT22;64927;48.214;16.378;2023-11-19T00:15:38;7.70;56.40
76168;DHT22;64927;48.214;16.378;2023-11-19T00:18:04;7.60;56.70
76168;DHT22;64927;48.214;16.378;2023-11-19T00:20:30;7.70;56.60
76168;DHT22;64927;48.214;16.378;2023-11-19T00:22:55;7.60;56.50
76168;DHT22;64927;48.214;16.378;2023-11-19T00:25:23;7.70;56.70
76168;DHT22;64927;48.214;16.378;2023-11-19T00:27:50;7.80;57.00
76168;DHT22;64927;48.214;16.378;2023-11-19T00:30:16;7.80;56.70
76168;DHT22;64927;48.214;16.378;2023-11-19T00:32:42;7.90;56.40
76168;DHT22;64927;48.214;16.378;2023-11-19T00:35:08;8.00;56.50
76168;DHT22;64927;48.214;16.378;2023-11-19T00:37:35;8.00;56.50
76168;DHT22;64927;48.214;16.378;2023-11-19T00:40:01;8.10;56.60
76168;DHT22;64927;48.214;16.378;2023-11-19T00:42:30;8.10;54.90
76168;DHT22;64927;48.214;16.378;2023-11-19T00:44:56;7.90;54.80
76168;DHT22;64927;48.214;16.378;2023-11-19T00:47:21;7.90;54.70
76168;DHT22;64927;48.214;16.378;2023-11-19T00:49:48;7.70;54.50
76168;DHT22;64927;48.214;16.378;2023-11-19T00:52:18;7.60;54.90
76168;DHT22;64927;48.214;16.378;2023-11-19T00:54:44;7.70;55.30
76168;DHT22;64927;48.214;16.378;2023-11-19T00:57:10;7.70;55.10
76168;DHT22;64927;48.214;16.378;2023-11-19T00:59:35;7.70;55.30
76168;DHT22;64927;48.214;16.378;2023-11-19T01:02:01;7.80;55.70
76168;DHT22;64927;48.214;16.378;2023-11-19T01:04:37;7.80;55.40
76168;DHT22;64927;48.214;16.378;2023-11-19T01:07:04;7.70;55.40
76168;DHT22;64927;48.214;16.378;2023-11-19T01:09:31;7.60;55.70
76168;DHT22;64927;48.214;16.378;2023-11-19T01:12:04;7.60;55.90
76168;DHT22;64927;48.214;16.378;2023-11-19T01:14:30;7.50;56.10
76168;DHT22;64927;48.214;16.378;2023-11-19T01:16:56;7.40;56.70
76168;DHT22;64927;48.214;16.378;2023-11-19T01:19:22;7.50;57.00
76168;DHT22;64927;48.214;16.378;2023-11-19T01:21:48;7.50;57.60
76168;DHT22;64927;48.214;16.378;2023-11-19T01:24:17;7.60;57.10
76168;DHT22;64927;48.214;16.378;2023-11-19T01:26:44;7.60;56.70
76168;DHT22;64927;48.214;16.378;2023-11-19T01:29:13;7.60;55.80
76168;DHT22;64927;48.214;16.378;2023-11-19T01:31:43;7.60;56.00
76168;DHT22;64927;48.214;16.378;2023-11-19T01:34:10;7.60;56.30
76168;DHT22;64927;48.214;16.378;2023-11-19T01:36:36;7.60;56.00
76168;DHT22;64927;48.214;16.378;2023-11-19T01:39:02;7.70;56.00
76168;DHT22;64927;48.214;16.378;2023-11-19T01:41:38;7.70;55.50
76168;DHT22;64927;48.214;16.378;2023-11-19T01:44:06;7.80;55.70
76168;DHT22;64927;48.214;16.378;2023-11-19T01:46:34;7.70;55.70
76168;DHT22;64927;48.214;16.378;2023-11-19T01:49:01;7.70;55.60
76168;DHT22;64927;48.214;16.378;2023-11-19T01:51:28;7.80;55.90
76168;DHT22;64927;48.214;16.378;2023-11-19T01:53:55;7.80;55.40
76168;DHT22;64927;48.214;16.378;2023-11-19T01:56:23;7.70;55.80
76168;DHT22;64927;48.214;16.378;2023-11-19T01:58:50;7.70;55.90
76168;DHT22;64927;48.214;16.378;2023-11-19T02:01:17;7.70;55.90
76168;DHT22;64927;48.214;16.378;2023-11-19T02:03:44;7.60;55.90
76168;DHT22;64927;48.214;16.378;2023-11-19T02:06:09;7.60;56.20
76168;DHT22;64927;48.214;16.378;2023-11-19T02:08:36;7.60;55.60
76168;DHT22;64927;48.214;16.378;2023-11-19T02:11:04;7.60;56.80
76168;DHT22;64927;48.214;16.378;2023-11-19T02:13:34;7.60;56.20
76168;DHT22;64927;48.214;16.378;2023-11-19T02:16:03;7.70;55.80
76168;DHT22;64927;48.214;16.378;2023-11-19T02:18:29;7.70;55.90
76168;DHT22;64927;48.214;16.378;2023-11-19T02:20:58;7.70;55.90
76168;DHT22;64927;48.214;16.378;2023-11-19T02:23:27;7.70;56.50
76168;DHT22;64927;48.214;16.378;2023-11-19T02:28:48;7.90;57.30
76168;DHT22;64927;48.214;16.378;2023-11-19T02:31:13;7.80;57.10
76168;DHT22;64927;48.214;16.378;2023-11-19T02:33:40;7.70;57.60
76168;DHT22;64927;48.214;16.378;2023-11-19T02:36:06;7.60;58.10
76168;DHT22;64927;48.214;16.378;2023-11-19T02:38:33;7.70;58.00
76168;DHT22;64927;48.214;16.378;2023-11-19T02:41:01;7.70;58.20
76168;DHT22;64927;48.214;16.378;2023-11-19T02:43:31;7.80;58.70
76168;DHT22;64927;48.214;16.378;2023-11-19T02:46:01;7.70;58.70
76168;DHT22;64927;48.214;16.378;2023-11-19T02:48:27;7.70;59.50
76168;DHT22;64927;48.214;16.378;2023-11-19T02:50:53;7.70;59.70
76168;DHT22;64927;48.214;16.378;2023-11-19T02:53:18;7.70;60.70
76168;DHT22;64927;48.214;16.378;2023-11-19T02:55:47;7.50;61.00
76168;DHT22;64927;48.214;16.378;2023-11-19T02:58:15;7.30;62.10
76168;DHT22;64927;48.214;16.378;2023-11-19T03:00:49;7.10;63.00
76168;DHT22;64927;48.214;16.378;2023-11-19T03:03:24;6.90;64.10
76168;DHT22;64927;48.214;16.378;2023-11-19T03:05:54;6.70;64.90
76168;DHT22;64927;48.214;16.378;2023-11-19T03:08:22;6.60;66.00
76168;DHT22;64927;48.214;16.378;2023-11-19T03:10:50;6.50;66.70
76168;DHT22;64927;48.214;16.378;2023-11-19T03:13:15;6.50;66.90
76168;DHT22;64927;48.214;16.378;2023-11-19T03:15:45;6.50;67.40
76168;DHT22;64927;48.214;16.378;2023-11-19T03:18:11;6.50;68.00
76168;DHT22;64927;48.214;16.378;2023-11-19T03:20:36;6.50;68.20
76168;DHT22;64927;48.214;16.378;2023-11-19T03:23:02;6.60;68.20
76168;DHT22;64927;48.214;16.378;2023-11-19T03:25:28;6.50;67.80
76168;DHT22;64927;48.214;16.378;2023-11-19T03:28:02;6.40;68.80
76168;DHT22;64927;48.214;16.378;2023-11-19T03:30:28;6.40;68.80
76168;DHT22;64927;48.214;16.378;2023-11-19T03:32:59;6.40;69.20
76168;DHT22;64927;48.214;16.378;2023-11-19T03:35:26;6.30;69.50
76168;DHT22;64927;48.214;16.378;2023-11-19T03:37:53;6.30;69.60
76168;DHT22;64927;48.214;16.378;2023-11-19T03:40:19;6.30;70.10
76168;DHT22;64927;48.214;16.378;2023-11-19T03:42:45;6.40;70.20
76168;DHT22;64927;48.214;16.378;2023-11-19T03:45:11;6.40;70.60
76168;DHT22;64927;48.214;16.378;2023-11-19T03:47:37;6.30;71.20
76168;DHT22;64927;48.214;16.378;2023-11-19T03:50:06;6.40;71.50
76168;DHT22;64927;48.214;16.378;2023-11-19T03:52:33;6.50;70.90
76168;DHT22;64927;48.214;16.378;2023-11-19T03:54:59;6.40;70.90
76168;DHT22;64927;48.214;16.378;2023-11-19T03:57:24;6.40;71.10
76168;DHT22;64927;48.214;16.378;2023-11-19T03:59:52;6.50;70.40
76168;DHT22;64927;48.214;16.378;2023-11-19T04:02:18;6.50;70.00
76168;DHT22;64927;48.214;16.378;2023-11-19T04:04:43;6.50;69.80
76168;DHT22;64927;48.214;16.378;2023-11-19T04:07:09;6.60;70.80
76168;DHT22;64927;48.214;16.378;2023-11-19T04:09:36;6.70;70.30
76168;DHT22;64927;48.214;16.378;2023-11-19T04:12:03;6.70;70.00
76168;DHT22;64927;48.214;16.378;2023-11-19T04:14:29;6.60;70.00
76168;DHT22;64927;48.214;16.378;2023-11-19T04:16:54;6.60;70.50
76168;DHT22;64927;48.214;16.378;2023-11-19T04:19:20;6.50;70.70
76168;DHT22;64927;48.214;16.378;2023-11-19T04:21:51;6.50;70.90
76168;DHT22;64927;48.214;16.378;2023-11-19T04:24:17;6.50;70.90
76168;DHT22;64927;48.214;16.378;2023-11-19T04:26:46;6.50;70.80
76168;DHT22;64927;48.214;16.378;2023-11-19T04:29:16;6.30;71.30
76168;DHT22;64927;48.214;16.378;2023-11-19T04:31:45;6.30;72.30
76168;DHT22;64927;48.214;16.378;2023-11-19T04:34:11;6.30;72.30
76168;DHT22;64927;48.214;16.378;2023-11-19T04:36:39;6.40;72.10
76168;DHT22;64927;48.214;16.378;2023-11-19T04:39:08;6.40;71.70
76168;DHT22;64927;48.214;16.378;2023-11-19T04:41:47;6.40;71.70
76168;DHT22;64927;48.214;16.378;2023-11-19T04:44:16;6.30;72.70
76168;DHT22;64927;48.214;16.378;2023-11-19T04:46:45;6.30;73.30
76168;DHT22;64927;48.214;16.378;2023-11-19T04:49:11;6.20;72.40
76168;DHT22;64927;48.214;16.378;2023-11-19T04:51:45;6.20;72.60
76168;DHT22;64927;48.214;16.378;2023-11-19T04:54:14;6.20;73.10
76168;DHT22;64927;48.214;16.378;2023-11-19T04:56:39;6.30;72.80
76168;DHT22;64927;48.214;16.378;2023-11-19T04:59:10;6.20;72.30
76168;DHT22;64927;48.214;16.378;2023-11-19T05:01:36;6.30;72.70
76168;DHT22;64927;48.214;16.378;2023-11-19T05:04:09;6.30;73.50
76168;DHT22;64927;48.214;16.378;2023-11-19T05:06:34;6.30;73.50
76168;DHT22;64927;48.214;16.378;2023-11-19T05:09:01;6.30;73.90
76168;DHT22;64927;48.214;16.378;2023-11-19T05:11:26;6.40;73.30
76168;DHT22;64927;48.214;16.378;2023-11-19T05:13:53;6.40;73.50
76168;DHT22;64927;48.214;16.378;2023-11-19T05:16:19;6.40;73.30
76168;DHT22;64927;48.214;16.378;2023-11-19T05:18:46;6.30;73.60
76168;DHT22;64927;48.214;16.378;2023-11-19T05:21:14;6.30;73.60
76168;DHT22;64927;48.214;16.378;2023-11-19T05:23:41;6.40;73.80
76168;DHT22;64927;48.214;16.378;2023-11-19T05:26:09;6.40;74.00
76168;DHT22;64927;48.214;16.378;2023-11-19T05:28:38;6.50;74.20
76168;DHT22;64927;48.214;16.378;2023-11-19T05:31:04;6.60;73.80
76168;DHT22;64927;48.214;16.378;2023-11-19T05:33:31;6.60;73.60
76168;DHT22;64927;48.214;16.378;2023-11-19T05:35:56;6.60;73.60
76168;DHT22;64927;48.214;16.378;2023-11-19T05:38:25;6.60;72.70
76168;DHT22;64927;48.214;16.378;2023-11-19T05:40:50;6.60;72.60
76168;DHT22;64927;48.214;16.378;2023-11-19T05:43:18;6.60;72.10
76168;DHT22;64927;48.214;16.378;2023-11-19T05:45:44;6.50;72.80
76168;DHT22;64927;48.214;16.378;2023-11-19T05:48:09;6.40;73.30
76168;DHT22;64927;48.214;16.378;2023-11-19T05:50:35;6.40;73.40
76168;DHT22;64927;48.214;16.378;2023-11-19T05:53:03;6.40;73.80
76168;DHT22;64927;48.214;16.378;2023-11-19T05:55:33;6.50;73.80
76168;DHT22;64927;48.214;16.378;2023-11-19T05:58:00;6.40;73.70
76168;DHT22;64927;48.214;16.378;2023-11-19T06:00:25;6.30;73.60
76168;DHT22;64927;48.214;16.378;2023-11-19T06:02:52;6.10;73.90
76168;DHT22;64927;48.214;16.378;2023-11-19T06:05:20;6.10;74.40
76168;DHT22;64927;48.214;16.378;2023-11-19T06:07:45;6.10;74.70
76168;DHT22;64927;48.214;16.378;2023-11-19T06:10:14;6.10;75.20
76168;DHT22;64927;48.214;16.378;2023-11-19T06:12:42;6.10;75.50
76168;DHT22;64927;48.214;16.378;2023-11-19T06:15:08;6.20;74.70
76168;DHT22;64927;48.214;16.378;2023-11-19T06:17:36;6.20;74.50
76168;DHT22;64927;48.214;16.378;2023-11-19T06:20:05;6.30;74.60
76168;DHT22;64927;48.214;16.378;2023-11-19T06:22:31;6.30;74.90
76168;DHT22;64927;48.214;16.378;2023-11-19T06:24:57;6.20;75.20
76168;DHT22;64927;48.214;16.378;2023-11-19T06:27:24;6.20;74.80
76168;DHT22;64927;48.214;16.378;2023-11-19T06:29:52;6.30;75.20
76168;DHT22;64927;48.214;16.378;2023-11-19T06:32:17;6.40;74.70
76168;DHT22;64927;48.214;16.378;2023-11-19T06:34:45;6.30;74.80
76168;DHT22;64927;48.214;16.378;2023-11-19T06:37:13;6.40;75.00
76168;DHT22;64927;48.214;16.378;2023-11-19T06:39:38;6.40;75.40
76168;DHT22;64927;48.214;16.378;2023-11-19T06:42:04;6.40;74.90
76168;DHT22;64927;48.214;16.378;2023-11-19T06:44:30;6.40;75.20
76168;DHT22;64927;48.214;16.378;2023-11-19T06:46:55;6.50;75.20
76168;DHT22;64927;48.214;16.378;2023-11-19T06:49:21;6.40;74.80
76168;DHT22;64927;48.214;16.378;2023-11-19T06:51:49;6.40;74.70
76168;DHT22;64927;48.214;16.378;2023-11-19T06:54:15;6.40;75.20
76168;DHT22;64927;48.214;16.378;2023-11-19T06:56:41;6.30;75.30
76168;DHT22;64927;48.214;16.378;2023-11-19T06:59:07;6.20;75.70
76168;DHT22;64927;48.214;16.378;2023-11-19T07:01:36;6.20;76.30
76168;DHT22;64927;48.214;16.378;2023-11-19T07:04:04;6.20;76.70
76168;DHT22;64927;48.214;16.378;2023-11-19T07:06:35;6.20;76.50
76168;DHT22;64927;48.214;16.378;2023-11-19T07:09:02;6.30;77.20
76168;DHT22;64927;48.214;16.378;2023-11-19T07:11:44;6.40;77.10
76168;DHT22;64927;48.214;16.378;2023-11-19T07:14:11;6.50;77.90
76168;DHT22;64927;48.214;16.378;2023-11-19T07:16:39;6.40;76.10
76168;DHT22;64927;48.214;16.378;2023-11-19T07:19:06;6.40;76.20
76168;DHT22;64927;48.214;16.378;2023-11-19T07:21:32;6.40;76.90
76168;DHT22;64927;48.214;16.378;2023-11-19T07:23:58;6.30;76.70
76168;DHT22;64927;48.214;16.378;2023-11-19T07:26:24;6.40;78.20
76168;DHT22;64927;48.214;16.378;2023-11-19T07:28:50;6.50;76.60
76168;DHT22;64927;48.214;16.378;2023-11-19T07:31:16;6.50;75.80
76168;DHT22;64927;48.214;16.378;2023-11-19T07:33:47;6.50;76.60
76168;DHT22;64927;48.214;16.378;2023-11-19T07:36:16;6.50;76.20
76168;DHT22;64927;48.214;16.378;2023-11-19T07:38:45;6.50;76.60
76168;DHT22;64927;48.214;16.378;2023-11-19T07:41:13;6.60;76.70
76168;DHT22;64927;48.214;16.378;2023-11-19T07:43:44;6.70;77.40
76168;DHT22;64927;48.214;16.378;2023-11-19T07:46:15;6.70;75.20
76168;DHT22;64927;48.214;16.378;2023-11-19T07:48:41;6.60;74.60
76168;DHT22;64927;48.214;16.378;2023-11-19T07:51:07;6.50;74.90
76168;DHT22;64927;48.214;16.378;2023-11-19T07:53:33;6.30;75.30
76168;DHT22;64927;48.214;16.378;2023-11-19T07:56:00;6.20;75.30
76168;DHT22;64927;48.214;16.378;2023-11-19T07:58:25;6.20;76.00
76168;DHT22;64927;48.214;16.378;2023-11-19T08:00:53;6.20;76.40
76168;DHT22;64927;48.214;16.378;2023-11-19T08:03:19;6.30;76.70
76168;DHT22;64927;48.214;16.378;2023-11-19T08:05:45;6.40;76.50
76168;DHT22;64927;48.214;16.378;2023-11-19T08:08:11;6.30;76.00
76168;DHT22;64927;48.214;16.378;2023-11-19T08:10:42;6.40;76.40
76168;DHT22;64927;48.214;16.378;2023-11-19T08:13:08;6.40;75.90
76168;DHT22;64927;48.214;16.378;2023-11-19T08:15:39;6.50;76.70
76168;DHT22;64927;48.214;16.378;2023-11-19T08:18:05;6.70;75.90
76168;DHT22;64927;48.214;16.378;2023-11-19T08:20:32;6.70;76.00
76168;DHT22;64927;48.214;16.378;2023-11-19T08:23:02;6.80;75.60
76168;DHT22;64927;48.214;16.378;2023-11-19T08:25:29;7.00;74.70
76168;DHT22;64927;48.214;16.378;2023-11-19T08:27:54;7.10;74.50
76168;DHT22;64927;48.214;16.378;2023-11-19T08:30:20;7.10;73.80
76168;DHT22;64927;48.214;16.378;2023-11-19T08:32:46;7.20;74.70
76168;DHT22;64927;48.214;16.378;2023-11-19T08:35:11;7.30;74.50
76168;DHT22;64927;48.214;16.378;2023-11-19T08:37:37;7.40;74.10
76168;DHT22;64927;48.214;16.378;2023-11-19T08:40:04;7.60;73.50
76168;DHT22;64927;48.214;16.378;2023-11-19T08:42:30;7.60;72.50
76168;DHT22;64927;48.214;16.378;2023-11-19T08:44:58;7.50;73.30
76168;DHT22;64927;48.214;16.378;2023-11-19T08:47:24;7.50;73.40
76168;DHT22;64927;48.214;16.378;2023-11-19T08:49:52;7.60;73.10
76168;DHT22;64927;48.214;16.378;2023-11-19T08:52:18;7.60;73.00
76168;DHT22;64927;48.214;16.378;2023-11-19T08:54:44;7.70;73.00
76168;DHT22;64927;48.214;16.378;2023-11-19T08:57:10;7.70;72.10
76168;DHT22;64927;48.214;16.378;2023-11-19T08:59:37;7.70;72.80
76168;DHT22;64927;48.214;16.378;2023-11-19T09:02:07;7.80;72.90
76168;DHT22;64927;48.214;16.378;2023-11-19T09:04:33;7.80;72.40
76168;DHT22;64927;48.214;16.378;2023-11-19T09:06:59;7.80;72.60
76168;DHT22;64927;48.214;16.378;2023-11-19T09:09:24;7.90;72.70
76168;DHT22;64927;48.214;16.378;2023-11-19T09:11:50;8.00;72.40
76168;DHT22;64927;48.214;16.378;2023-11-19T09:14:21;8.00;72.00
76168;DHT22;64927;48.214;16.378;2023-11-19T09:16:51;8.00;71.70
76168;DHT22;64927;48.214;16.378;2023-11-19T09:19:17;8.00;71.70
76168;DHT22;64927;48.214;16.378;2023-11-19T09:21:45;8.00;71.20
76168;DHT22;64927;48.214;16.378;2023-11-19T09:24:11;8.10;71.90
76168;DHT22;64927;48.214;16.378;2023-11-19T09:26:38;8.00;71.10
76168;DHT22;64927;48.214;16.378;2023-11-19T09:29:09;8.10;71.90
76168;DHT22;64927;48.214;16.378;2023-11-19T09:31:34;8.30;71.50
76168;DHT22;64927;48.214;16.378;2023-11-19T09:34:02;8.40;70.40
76168;DHT22;64927;48.214;16.378;2023-11-19T09:36:31;8.40;70.20
76168;DHT22;64927;48.214;16.378;2023-11-19T09:38:59;8.50;70.80
76168;DHT22;64927;48.214;16.378;2023-11-19T09:41:30;8.60;70.40
76168;DHT22;64927;48.214;16.378;2023-11-19T09:43:56;8.70;69.70
76168;DHT22;64927;48.214;16.378;2023-11-19T09:46:22;8.70;69.70
76168;DHT22;64927;48.214;16.378;2023-11-19T09:48:52;8.60;69.30
76168;DHT22;64927;48.214;16.378;2023-11-19T09:51:20;8.50;69.50
76168;DHT22;64927;48.214;16.378;2023-11-19T09:53:46;8.50;69.70
76168;DHT22;64927;48.214;16.378;2023-11-19T09:56:14;8.50;70.60
76168;DHT22;64927;48.214;16.378;2023-11-19T09:58:42;8.50;69.70
76168;DHT22;64927;48.214;16.378;2023-11-19T10:01:08;8.50;70.20
76168;DHT22;64927;48.214;16.378;2023-11-19T10:03:37;8.40;70.10
76168;DHT22;64927;48.214;16.378;2023-11-19T10:06:06;8.40;70.90
76168;DHT22;64927;48.214;16.378;2023-11-19T10:08:33;8.50;71.40
76168;DHT22;64927;48.214;16.378;2023-11-19T10:10:58;8.60;70.60
76168;DHT22;64927;48.214;16.378;2023-11-19T10:13:31;8.60;70.50
76168;DHT22;64927;48.214;16.378;2023-11-19T10:15:57;8.70;70.10
76168;DHT22;64927;48.214;16.378;2023-11-19T10:18:28;8.80;69.50
76168;DHT22;64927;48.214;16.378;2023-11-19T10:20:54;8.90;68.80
76168;DHT22;64927;48.214;16.378;2023-11-19T10:23:20;8.90;69.70
76168;DHT22;64927;48.214;16.378;2023-11-19T10:25:53;9.10;69.50
76168;DHT22;64927;48.214;16.378;2023-11-19T10:28:18;9.10;69.50
76168;DHT22;64927;48.214;16.378;2023-11-19T10:30:44;9.20;69.60
76168;DHT22;64927;48.214;16.378;2023-11-19T10:33:11;9.20;68.20
76168;DHT22;64927;48.214;16.378;2023-11-19T10:35:57;9.20;68.30
76168;DHT22;64927;48.214;16.378;2023-11-19T10:38:24;9.10;68.20
76168;DHT22;64927;48.214;16.378;2023-11-19T10:40:53;9.00;69.10
76168;DHT22;64927;48.214;16.378;2023-11-19T10:43:22;9.00;69.60
76168;DHT22;64927;48.214;16.378;2023-11-19T10:45:51;9.10;68.80
76168;DHT22;64927;48.214;16.378;2023-11-19T10:48:20;9.10;69.20
76168;DHT22;64927;48.214;16.378;2023-11-19T10:50:53;9.10;69.80
76168;DHT22;64927;48.214;16.378;2023-11-19T10:53:18;8.90;69.30
76168;DHT22;64927;48.214;16.378;2023-11-19T10:55:47;8.90;70.00
76168;DHT22;64927;48.214;16.378;2023-11-19T10:58:16;9.00;70.60
76168;DHT22;64927;48.214;16.378;2023-11-19T11:00:46;9.00;69.60
76168;DHT22;64927;48.214;16.378;2023-11-19T11:03:20;9.00;70.10
76168;DHT22;64927;48.214;16.378;2023-11-19T11:05:50;9.00;70.30
76168;DHT22;64927;48.214;16.378;2023-11-19T11:08:20;9.10;71.00
76168;DHT22;64927;48.214;16.378;2023-11-19T11:10:55;9.10;70.30
76168;DHT22;64927;48.214;16.378;2023-11-19T11:13:23;9.00;70.00
76168;DHT22;64927;48.214;16.378;2023-11-19T11:15:52;9.00;71.00
76168;DHT22;64927;48.214;16.378;2023-11-19T11:18:20;8.90;70.80
76168;DHT22;64927;48.214;16.378;2023-11-19T11:20:46;9.00;71.20
76168;DHT22;64927;48.214;16.378;2023-11-19T11:32:17;8.90;72.40
76168;DHT22;64927;48.214;16.378;2023-11-19T11:35:16;9.00;72.30
76168;DHT22;64927;48.214;16.378;2023-11-19T11:37:46;9.10;71.60
76168;DHT22;64927;48.214;16.378;2023-11-19T11:40:17;9.10;71.70
76168;DHT22;64927;48.214;16.378;2023-11-19T11:42:45;9.00;71.20
76168;DHT22;64927;48.214;16.378;2023-11-19T11:45:16;8.90;71.90
76168;DHT22;64927;48.214;16.378;2023-11-19T11:50:09;8.80;72.80
76168;DHT22;64927;48.214;16.378;2023-11-19T11:55:27;8.80;74.00
76168;DHT22;64927;48.214;16.378;2023-11-19T11:57:56;8.80;73.50
76168;DHT22;64927;48.214;16.378;2023-11-19T12:00:26;8.80;73.80
76168;DHT22;64927;48.214;16.378;2023-11-19T12:02:52;8.70;73.60
76168;DHT22;64927;48.214;16.378;2023-11-19T12:05:22;8.70;74.20
76168;DHT22;64927;48.214;16.378;2023-11-19T12:08:18;8.70;74.30
76168;DHT22;64927;48.214;16.378;2023-11-19T12:10:49;8.70;74.20
76168;DHT22;64927;48.214;16.378;2023-11-19T12:13:16;8.70;74.70
76168;DHT22;64927;48.214;16.378;2023-11-19T12:18:30;9.00;73.90
76168;DHT22;64927;48.214;16.378;2023-11-19T12:21:01;8.90;73.50
76168;DHT22;64927;48.214;16.378;2023-11-19T12:23:31;8.90;74.90
76168;DHT22;64927;48.214;16.378;2023-11-19T12:25:58;9.00;75.00
76168;DHT22;64927;48.214;16.378;2023-11-19T12:28:24;9.10;74.30
76168;DHT22;64927;48.214;16.378;2023-11-19T12:30:52;9.10;74.30
76168;DHT22;64927;48.214;16.378;2023-11-19T12:33:19;9.20;73.60
76168;DHT22;64927;48.214;16.378;2023-11-19T12:35:46;9.20;73.20
76168;DHT22;64927;48.214;16.378;2023-11-19T12:38:22;9.20;73.20
76168;DHT22;64927;48.214;16.378;2023-11-19T12:41:09;9.10;73.20
76168;DHT22;64927;48.214;16.378;2023-11-19T12:43:39;8.90;74.50
76168;DHT22;64927;48.214;16.378;2023-11-19T12:46:23;8.90;75.60
76168;DHT22;64927;48.214;16.378;2023-11-19T12:48:49;9.00;75.20
76168;DHT22;64927;48.214;16.378;2023-11-19T12:51:15;9.00;74.80
76168;DHT22;64927;48.214;16.378;2023-11-19T12:53:51;8.90;75.10
76168;DHT22;64927;48.214;16.378;2023-11-19T12:56:20;9.00;75.30
76168;DHT22;64927;48.214;16.378;2023-11-19T12:58:47;9.00;74.60
76168;DHT22;64927;48.214;16.378;2023-11-19T13:01:17;9.00;75.00
76168;DHT22;64927;48.214;16.378;2023-11-19T13:03:43;9.10;75.30
76168;DHT22;64927;48.214;16.378;2023-11-19T13:06:11;9.10;75.10
76168;DHT22;64927;48.214;16.378;2023-11-19T13:08:45;9.10;75.50
76168;DHT22;64927;48.214;16.378;2023-11-19T13:11:12;9.10;75.20
76168;DHT22;64927;48.214;16.378;2023-11-19T13:13:58;9.10;75.70
76168;DHT22;64927;48.214;16.378;2023-11-19T13:16:28;9.20;75.80
76168;DHT22;64927;48.214;16.378;2023-11-19T13:18:54;9.40;76.80
76168;DHT22;64927;48.214;16.378;2023-11-19T13:21:22;9.40;75.60
76168;DHT22;64927;48.214;16.378;2023-11-19T13:23:48;9.60;75.00
76168;DHT22;64927;48.214;16.378;2023-11-19T13:26:14;9.60;74.40
76168;DHT22;64927;48.214;16.378;2023-11-19T13:28:39;9.60;74.60
76168;DHT22;64927;48.214;16.378;2023-11-19T13:31:05;9.70;74.70
76168;DHT22;64927;48.214;16.378;2023-11-19T13:33:31;9.70;74.10
76168;DHT22;64927;48.214;16.378;2023-11-19T13:35:56;9.70;74.10
76168;DHT22;64927;48.214;16.378;2023-11-19T13:38:22;9.70;74.40
76168;DHT22;64927;48.214;16.378;2023-11-19T13:40:50;9.60;74.10
76168;DHT22;64927;48.214;16.378;2023-11-19T13:43:16;9.60;74.60
76168;DHT22;64927;48.214;16.378;2023-11-19T13:45:42;9.60;74.50
76168;DHT22;64927;48.214;16.378;2023-11-19T13:48:08;9.70;74.80
76168;DHT22;64927;48.214;16.378;2023-11-19T13:50:34;9.70;74.60
76168;DHT22;64927;48.214;16.378;2023-11-19T13:53:00;9.70;74.70
76168;DHT22;64927;48.214;16.378;2023-11-19T13:55:26;9.70;75.30
76168;DHT22;64927;48.214;16.378;2023-11-19T13:57:56;9.90;75.10
76168;DHT22;64927;48.214;16.378;2023-11-19T14:00:21;9.90;74.90
76168;DHT22;64927;48.214;16.378;2023-11-19T14:02:49;9.90;74.40
76168;DHT22;64927;48.214;16.378;2023-11-19T14:05:15;10.00;74.20
76168;DHT22;64927;48.214;16.378;2023-11-19T14:07:43;10.00;74.20
76168;DHT22;64927;48.214;16.378;2023-11-19T14:10:10;10.00;74.10
76168;DHT22;64927;48.214;16.378;2023-11-19T14:12:38;10.00;74.00
76168;DHT22;64927;48.214;16.378;2023-11-19T14:15:05;10.00;74.10
76168;DHT22;64927;48.214;16.378;2023-11-19T14:17:32;9.90;74.60
76168;DHT22;64927;48.214;16.378;2023-11-19T14:19:57;9.80;74.30
76168;DHT22;64927;48.214;16.378;2023-11-19T14:22:26;9.80;75.30
76168;DHT22;64927;48.214;16.378;2023-11-19T14:24:51;9.80;75.60
76168;DHT22;64927;48.214;16.378;2023-11-19T14:27:17;9.90;75.80
76168;DHT22;64927;48.214;16.378;2023-11-19T14:29:43;10.00;75.30
76168;DHT22;64927;48.214;16.378;2023-11-19T14:32:11;10.00;74.50
76168;DHT22;64927;48.214;16.378;2023-11-19T14:34:37;9.90;74.80
76168;DHT22;64927;48.214;16.378;2023-11-19T14:37:03;9.80;75.60
76168;DHT22;64927;48.214;16.378;2023-11-19T14:39:29;9.70;75.70
76168;DHT22;64927;48.214;16.378;2023-11-19T14:41:59;9.60;75.80
76168;DHT22;64927;48.214;16.378;2023-11-19T14:44:29;9.60;76.10
76168;DHT22;64927;48.214;16.378;2023-11-19T14:46:55;9.50;76.50
76168;DHT22;64927;48.214;16.378;2023-11-19T14:49:21;9.40;76.90
76168;DHT22;64927;48.214;16.378;2023-11-19T14:51:51;9.40;77.20
76168;DHT22;64927;48.214;16.378;2023-11-19T14:54:21;9.40;77.70
76168;DHT22;64927;48.214;16.378;2023-11-19T14:56:47;9.40;77.40
76168;DHT22;64927;48.214;16.378;2023-11-19T14:59:13;9.50;77.70
76168;DHT22;64927;48.214;16.378;2023-11-19T15:01:38;9.60;77.60
76168;DHT22;64927;48.214;16.378;2023-11-19T15:04:06;9.60;77.40
76168;DHT22;64927;48.214;16.378;2023-11-19T15:06:34;9.60;77.00
76168;DHT22;64927;48.214;16.378;2023-11-19T15:08:59;9.60;76.70
76168;DHT22;64927;48.214;16.378;2023-11-19T15:11:25;9.40;77.00
76168;DHT22;64927;48.214;16.378;2023-11-19T15:13:51;9.20;77.70
76168;DHT22;64927;48.214;16.378;2023-11-19T15:16:16;9.10;78.40
76168;DHT22;64927;48.214;16.378;2023-11-19T15:18:48;8.90;79.00
76168;DHT22;64927;48.214;16.378;2023-11-19T15:21:13;8.90;79.80
76168;DHT22;64927;48.214;16.378;2023-11-19T15:23:42;8.80;79.80
76168;DHT22;64927;48.214;16.378;2023-11-19T15:26:10;8.80;80.10
76168;DHT22;64927;48.214;16.378;2023-11-19T15:28:39;8.90;80.10
76168;DHT22;64927;48.214;16.378;2023-11-19T15:31:04;8.80;80.00
76168;DHT22;64927;48.214;16.378;2023-11-19T15:33:30;8.80;80.00
76168;DHT22;64927;48.214;16.378;2023-11-19T15:35:55;8.80;79.60
76168;DHT22;64927;48.214;16.378;2023-11-19T15:38:21;8.70;79.90
76168;DHT22;64927;48.214;16.378;2023-11-19T15:40:47;8.70;80.40
76168;DHT22;64927;48.214;16.378;2023-11-19T15:43:14;8.70;80.60
76168;DHT22;64927;48.214;16.378;2023-11-19T15:45:44;8.60;80.20
76168;DHT22;64927;48.214;16.378;2023-11-19T15:48:10;8.50;80.50
76168;DHT22;64927;48.214;16.378;2023-11-19T15:50:39;8.50;80.20
76168;DHT22;64927;48.214;16.378;2023-11-19T15:53:04;8.40;80.70